Burry Port, United Kingdom
Current Conditions -  °F | °C
As of 5:50 AM on Tuesday 21 Oct 2014 (Local Time) from EGOP Reporting Station
Broken Clouds Broken Clouds  
Wind Chill: 57°   Ceiling: 5000
Heat Index: 57°   Visibility: 4mi
Dew Point: 54°   Wind: 31mph
Humidity: 88%   Direction: 280°W
Pressure: 29.59"   Gusts: NA
Location:  51.68°N, 4.25°W
Report Text: EGOP 210450Z AUTO 28027KT 7000 // FEW023/// SCT029/// BKN050/// 14/12 Q1002
Loading
Personal Weather Stations






























Interactive Weather Map
Tropical Storm Tracking
New forecast layout! Learn more

10-Day Weather Forecast

Advertisements
Track Severe Weather on mobile